sensor_id;sensor_type;location;lat;lon;timestamp;pressure;altitude;pressure_sealevel;temperature;humidity
67434;BME280;54305;47.950;6.572;2023-06-05T00:01:57;94320.69;;;13.64;80.35
67434;BME280;54305;47.950;6.572;2023-06-05T00:04:23;94319.91;;;13.63;79.02
67434;BME280;54305;47.950;6.572;2023-06-05T00:06:48;94312.03;;;13.63;78.26
67434;BME280;54305;47.950;6.572;2023-06-05T00:09:14;94316.72;;;13.68;78.66
67434;BME280;54305;47.950;6.572;2023-06-05T00:11:40;94311.66;;;13.66;78.97
67434;BME280;54305;47.950;6.572;2023-06-05T00:14:05;94314.84;;;13.62;77.97
67434;BME280;54305;47.950;6.572;2023-06-05T00:16:33;94311.13;;;13.56;78.47
67434;BME280;54305;47.950;6.572;2023-06-05T00:18:58;94305.09;;;13.56;79.41
67434;BME280;54305;47.950;6.572;2023-06-05T00:21:23;94303.81;;;13.52;78.30
67434;BME280;54305;47.950;6.572;2023-06-05T00:23:50;94305.78;;;13.50;78.62
67434;BME280;54305;47.950;6.572;2023-06-05T00:26:15;94298.22;;;13.55;77.59
67434;BME280;54305;47.950;6.572;2023-06-05T00:28:40;94299.88;;;13.56;77.55
67434;BME280;54305;47.950;6.572;2023-06-05T00:31:05;94303.44;;;13.55;76.93
67434;BME280;54305;47.950;6.572;2023-06-05T00:33:31;94300.56;;;13.50;78.04
67434;BME280;54305;47.950;6.572;2023-06-05T00:35:56;94293.72;;;13.49;77.11
67434;BME280;54305;47.950;6.572;2023-06-05T00:38:22;94295.16;;;13.51;78.13
67434;BME280;54305;47.950;6.572;2023-06-05T00:40:47;94290.09;;;13.50;78.54
67434;BME280;54305;47.950;6.572;2023-06-05T00:43:12;94294.97;;;13.53;76.92
67434;BME280;54305;47.950;6.572;2023-06-05T00:45:37;94307.16;;;13.60;75.46
67434;BME280;54305;47.950;6.572;2023-06-05T00:48:03;94296.88;;;13.59;75.32
67434;BME280;54305;47.950;6.572;2023-06-05T00:50:28;94293.72;;;13.49;77.02
67434;BME280;54305;47.950;6.572;2023-06-05T00:52:57;94287.94;;;13.39;77.52
67434;BME280;54305;47.950;6.572;2023-06-05T00:55:22;94297.94;;;13.35;77.50
67434;BME280;54305;47.950;6.572;2023-06-05T00:57:48;94294.44;;;13.43;76.61
67434;BME280;54305;47.950;6.572;2023-06-05T01:00:13;94291.53;;;13.38;77.29
67434;BME280;54305;47.950;6.572;2023-06-05T01:02:39;94288.75;;;13.39;77.33
67434;BME280;54305;47.950;6.572;2023-06-05T01:05:05;94295.16;;;13.37;75.23
67434;BME280;54305;47.950;6.572;2023-06-05T01:07:31;94289.53;;;13.40;74.05
67434;BME280;54305;47.950;6.572;2023-06-05T01:09:59;94286.31;;;13.38;77.57
67434;BME280;54305;47.950;6.572;2023-06-05T01:12:26;94289.94;;;13.37;77.38
67434;BME280;54305;47.950;6.572;2023-06-05T01:14:52;94287.38;;;13.29;77.00
67434;BME280;54305;47.950;6.572;2023-06-05T01:17:21;94283.88;;;13.22;79.19
67434;BME280;54305;47.950;6.572;2023-06-05T01:19:49;94283.75;;;13.30;77.30
67434;BME280;54305;47.950;6.572;2023-06-05T01:22:14;94291.78;;;13.28;78.43
67434;BME280;54305;47.950;6.572;2023-06-05T01:24:41;94286.00;;;13.18;79.18
67434;BME280;54305;47.950;6.572;2023-06-05T01:27:13;94281.94;;;13.16;78.01
67434;BME280;54305;47.950;6.572;2023-06-05T01:35:01;94281.03;;;13.09;80.72
67434;BME280;54305;47.950;6.572;2023-06-05T01:37:28;94283.19;;;13.05;83.63
67434;BME280;54305;47.950;6.572;2023-06-05T01:40:01;94282.13;;;12.92;85.06
67434;BME280;54305;47.950;6.572;2023-06-05T01:42:27;94284.38;;;12.95;86.25
67434;BME280;54305;47.950;6.572;2023-06-05T01:44:53;94280.78;;;12.96;83.35
67434;BME280;54305;47.950;6.572;2023-06-05T01:47:18;94281.94;;;12.93;81.38
67434;BME280;54305;47.950;6.572;2023-06-05T01:49:46;94286.72;;;12.90;83.17
67434;BME280;54305;47.950;6.572;2023-06-05T01:52:11;94285.00;;;12.82;83.26
67434;BME280;54305;47.950;6.572;2023-06-05T01:54:37;94280.09;;;12.79;84.07
67434;BME280;54305;47.950;6.572;2023-06-05T01:57:04;94278.75;;;12.69;80.89
67434;BME280;54305;47.950;6.572;2023-06-05T01:59:29;94278.25;;;12.65;82.03
67434;BME280;54305;47.950;6.572;2023-06-05T02:01:54;94284.16;;;12.82;78.27
67434;BME280;54305;47.950;6.572;2023-06-05T02:04:20;94292.75;;;12.68;78.48
67434;BME280;54305;47.950;6.572;2023-06-05T02:06:45;94279.13;;;12.58;79.80
67434;BME280;54305;47.950;6.572;2023-06-05T02:09:11;94278.53;;;12.48;84.21
67434;BME280;54305;47.950;6.572;2023-06-05T02:11:37;94283.16;;;12.46;85.99
67434;BME280;54305;47.950;6.572;2023-06-05T02:14:03;94279.88;;;12.44;89.80
67434;BME280;54305;47.950;6.572;2023-06-05T02:16:29;94278.09;;;12.44;87.04
67434;BME280;54305;47.950;6.572;2023-06-05T02:18:55;94284.63;;;12.40;87.85
67434;BME280;54305;47.950;6.572;2023-06-05T02:21:22;94280.94;;;12.35;84.22
67434;BME280;54305;47.950;6.572;2023-06-05T02:23:47;94278.66;;;12.32;86.15
67434;BME280;54305;47.950;6.572;2023-06-05T02:26:14;94279.66;;;12.31;84.03
67434;BME280;54305;47.950;6.572;2023-06-05T02:28:41;94276.38;;;12.29;82.88
67434;BME280;54305;47.950;6.572;2023-06-05T02:31:07;94271.53;;;12.26;88.10
67434;BME280;54305;47.950;6.572;2023-06-05T02:33:32;94280.69;;;12.22;89.59
67434;BME280;54305;47.950;6.572;2023-06-05T02:35:57;94283.56;;;12.35;84.96
67434;BME280;54305;47.950;6.572;2023-06-05T02:38:24;94272.91;;;12.36;86.44
67434;BME280;54305;47.950;6.572;2023-06-05T02:40:49;94272.31;;;12.26;89.19
67434;BME280;54305;47.950;6.572;2023-06-05T02:43:14;94277.78;;;12.17;89.48
67434;BME280;54305;47.950;6.572;2023-06-05T02:45:41;94277.78;;;12.17;90.86
67434;BME280;54305;47.950;6.572;2023-06-05T02:48:06;94278.50;;;12.33;83.77
67434;BME280;54305;47.950;6.572;2023-06-05T02:50:32;94277.75;;;12.25;88.70
67434;BME280;54305;47.950;6.572;2023-06-05T02:52:57;94278.09;;;12.14;92.19
67434;BME280;54305;47.950;6.572;2023-06-05T02:55:22;94277.78;;;12.17;92.71
67434;BME280;54305;47.950;6.572;2023-06-05T02:57:48;94271.03;;;12.22;89.05
67434;BME280;54305;47.950;6.572;2023-06-05T03:00:14;94276.44;;;12.21;89.68
67434;BME280;54305;47.950;6.572;2023-06-05T03:02:42;94276.94;;;12.16;89.46
67434;BME280;54305;47.950;6.572;2023-06-05T03:05:09;94276.19;;;12.08;93.88
67434;BME280;54305;47.950;6.572;2023-06-05T03:07:35;94277.88;;;12.01;94.50
67434;BME280;54305;47.950;6.572;2023-06-05T03:10:01;94274.97;;;11.96;97.40
67434;BME280;54305;47.950;6.572;2023-06-05T03:12:26;94282.66;;;11.89;98.64
67434;BME280;54305;47.950;6.572;2023-06-05T03:14:51;94281.81;;;11.89;98.95
67434;BME280;54305;47.950;6.572;2023-06-05T03:17:17;94282.81;;;11.88;97.70
67434;BME280;54305;47.950;6.572;2023-06-05T03:19:42;94278.91;;;11.92;95.14
67434;BME280;54305;47.950;6.572;2023-06-05T03:22:07;94280.50;;;11.93;94.92
67434;BME280;54305;47.950;6.572;2023-06-05T03:24:33;94285.03;;;11.99;93.05
67434;BME280;54305;47.950;6.572;2023-06-05T03:27:02;94282.41;;;12.07;95.01
67434;BME280;54305;47.950;6.572;2023-06-05T03:29:29;94285.50;;;12.02;96.28
67434;BME280;54305;47.950;6.572;2023-06-05T03:31:54;94278.50;;;12.03;96.57
67434;BME280;54305;47.950;6.572;2023-06-05T03:34:20;94287.63;;;12.07;94.88
67434;BME280;54305;47.950;6.572;2023-06-05T03:36:45;94280.28;;;12.02;92.86
67434;BME280;54305;47.950;6.572;2023-06-05T03:39:10;94288.19;;;11.86;95.83
67434;BME280;54305;47.950;6.572;2023-06-05T03:41:37;94286.75;;;11.84;95.55
67434;BME280;54305;47.950;6.572;2023-06-05T03:44:02;94280.91;;;11.74;97.19
67434;BME280;54305;47.950;6.572;2023-06-05T03:46:28;94296.44;;;11.67;99.33
67434;BME280;54305;47.950;6.572;2023-06-05T03:48:54;94289.75;;;11.65;100.00
67434;BME280;54305;47.950;6.572;2023-06-05T03:51:27;94295.63;;;11.67;100.00
67434;BME280;54305;47.950;6.572;2023-06-05T03:53:55;94288.22;;;11.78;100.00
67434;BME280;54305;47.950;6.572;2023-06-05T03:56:21;94287.06;;;11.81;100.00
67434;BME280;54305;47.950;6.572;2023-06-05T03:58:48;94289.78;;;11.95;98.35
67434;BME280;54305;47.950;6.572;2023-06-05T04:01:13;94288.34;;;11.93;97.01
67434;BME280;54305;47.950;6.572;2023-06-05T04:03:39;94296.16;;;12.01;97.42
67434;BME280;54305;47.950;6.572;2023-06-05T04:06:05;94292.16;;;12.13;92.22
67434;BME280;54305;47.950;6.572;2023-06-05T04:08:30;94297.63;;;12.26;91.53
67434;BME280;54305;47.950;6.572;2023-06-05T04:10:55;94298.56;;;12.33;96.28
67434;BME280;54305;47.950;6.572;2023-06-05T04:13:20;94290.94;;;12.54;100.00
67434;BME280;54305;47.950;6.572;2023-06-05T04:15:47;94291.38;;;12.57;97.79
67434;BME280;54305;47.950;6.572;2023-06-05T04:18:13;94291.50;;;12.64;89.52
67434;BME280;54305;47.950;6.572;2023-06-05T04:20:39;94283.25;;;12.75;90.85
67434;BME280;54305;47.950;6.572;2023-06-05T04:23:04;94281.16;;;12.93;88.88
67434;BME280;54305;47.950;6.572;2023-06-05T04:25:30;94283.72;;;13.01;89.79
67434;BME280;54305;47.950;6.572;2023-06-05T04:27:55;94290.22;;;13.05;92.31
67434;BME280;54305;47.950;6.572;2023-06-05T04:30:21;94290.44;;;13.18;90.25
67434;BME280;54305;47.950;6.572;2023-06-05T04:32:46;94286.09;;;13.25;90.06
67434;BME280;54305;47.950;6.572;2023-06-05T04:35:19;94289.72;;;13.24;90.79
67434;BME280;54305;47.950;6.572;2023-06-05T04:37:44;94291.34;;;13.25;92.24
67434;BME280;54305;47.950;6.572;2023-06-05T04:40:10;94294.59;;;13.27;95.94
67434;BME280;54305;47.950;6.572;2023-06-05T04:42:36;94289.53;;;13.40;91.00
67434;BME280;54305;47.950;6.572;2023-06-05T04:45:02;94293.16;;;13.39;90.80
67434;BME280;54305;47.950;6.572;2023-06-05T04:47:28;94300.00;;;13.40;95.61
67434;BME280;54305;47.950;6.572;2023-06-05T04:49:54;94294.88;;;13.46;96.82
67434;BME280;54305;47.950;6.572;2023-06-05T04:52:20;94301.47;;;13.57;96.22
67434;BME280;54305;47.950;6.572;2023-06-05T04:54:45;94288.59;;;13.70;97.44
67434;BME280;54305;47.950;6.572;2023-06-05T04:57:11;94304.38;;;13.91;95.24
67434;BME280;54305;47.950;6.572;2023-06-05T04:59:36;94297.81;;;14.16;89.07
67434;BME280;54305;47.950;6.572;2023-06-05T05:02:02;94298.91;;;14.36;89.88
67434;BME280;54305;47.950;6.572;2023-06-05T05:04:27;94300.97;;;14.40;91.75
67434;BME280;54305;47.950;6.572;2023-06-05T05:06:52;94301.31;;;14.52;87.47
67434;BME280;54305;47.950;6.572;2023-06-05T05:09:18;94300.41;;;14.66;89.65
67434;BME280;54305;47.950;6.572;2023-06-05T05:11:43;94307.41;;;14.80;84.16
67434;BME280;54305;47.950;6.572;2023-06-05T05:14:09;94303.50;;;14.90;77.97
67434;BME280;54305;47.950;6.572;2023-06-05T05:16:34;94301.63;;;15.05;73.46
67434;BME280;54305;47.950;6.572;2023-06-05T05:18:59;94310.84;;;15.22;72.62
67434;BME280;54305;47.950;6.572;2023-06-05T05:21:25;94303.41;;;15.26;79.18
67434;BME280;54305;47.950;6.572;2023-06-05T05:23:50;94312.66;;;15.22;82.04
67434;BME280;54305;47.950;6.572;2023-06-05T05:26:16;94308.19;;;15.16;85.78
67434;BME280;54305;47.950;6.572;2023-06-05T05:28:41;94311.84;;;15.21;90.23
67434;BME280;54305;47.950;6.572;2023-06-05T05:31:06;94310.66;;;15.24;91.00
67434;BME280;54305;47.950;6.572;2023-06-05T05:33:32;94317.13;;;15.28;90.99
67434;BME280;54305;47.950;6.572;2023-06-05T05:35:57;94314.41;;;15.36;92.57
67434;BME280;54305;47.950;6.572;2023-06-05T05:38:22;94321.75;;;15.47;93.27
67434;BME280;54305;47.950;6.572;2023-06-05T05:40:48;94314.53;;;15.55;92.79
67434;BME280;54305;47.950;6.572;2023-06-05T05:43:13;94316.31;;;15.76;91.71
67434;BME280;54305;47.950;6.572;2023-06-05T05:45:38;94314.78;;;15.88;93.66
67434;BME280;54305;47.950;6.572;2023-06-05T05:48:05;94322.72;;;16.01;92.82
67434;BME280;54305;47.950;6.572;2023-06-05T05:50:30;94316.53;;;16.15;93.22
67434;BME280;54305;47.950;6.572;2023-06-05T05:52:55;94319.00;;;16.23;93.53
67434;BME280;54305;47.950;6.572;2023-06-05T05:55:21;94319.84;;;16.36;92.53
67434;BME280;54305;47.950;6.572;2023-06-05T05:57:46;94318.91;;;16.44;92.53
67434;BME280;54305;47.950;6.572;2023-06-05T06:00:11;94321.19;;;16.60;88.51
67434;BME280;54305;47.950;6.572;2023-06-05T06:02:40;94317.19;;;16.77;82.75
67434;BME280;54305;47.950;6.572;2023-06-05T06:05:05;94314.81;;;16.95;82.28
67434;BME280;54305;47.950;6.572;2023-06-05T06:07:31;94313.59;;;17.17;79.87
67434;BME280;54305;47.950;6.572;2023-06-05T06:09:56;94311.59;;;17.32;73.57
67434;BME280;54305;47.950;6.572;2023-06-05T06:12:22;94311.19;;;17.61;74.16
67434;BME280;54305;47.950;6.572;2023-06-05T06:14:47;94316.47;;;17.87;70.52
67434;BME280;54305;47.950;6.572;2023-06-05T06:17:13;94310.72;;;18.03;67.34
67434;BME280;54305;47.950;6.572;2023-06-05T06:19:38;94321.25;;;18.09;67.63
67434;BME280;54305;47.950;6.572;2023-06-05T06:22:04;94320.41;;;18.35;69.53
67434;BME280;54305;47.950;6.572;2023-06-05T06:24:36;94320.28;;;18.61;69.56
67434;BME280;54305;47.950;6.572;2023-06-05T06:27:01;94312.75;;;18.71;69.26
67434;BME280;54305;47.950;6.572;2023-06-05T06:29:26;94318.19;;;18.76;67.41
67434;BME280;54305;47.950;6.572;2023-06-05T06:31:52;94316.06;;;18.91;67.84
67434;BME280;54305;47.950;6.572;2023-06-05T06:34:18;94320.88;;;19.07;65.53
67434;BME280;54305;47.950;6.572;2023-06-05T06:36:43;94317.75;;;19.23;58.70
67434;BME280;54305;47.950;6.572;2023-06-05T06:39:11;94318.25;;;19.38;60.90
67434;BME280;54305;47.950;6.572;2023-06-05T06:41:39;94320.63;;;19.46;61.45
67434;BME280;54305;47.950;6.572;2023-06-05T06:44:08;94323.19;;;19.77;60.38
67434;BME280;54305;47.950;6.572;2023-06-05T06:46:34;94325.63;;;19.78;59.60
67434;BME280;54305;47.950;6.572;2023-06-05T06:48:59;94324.38;;;19.81;59.43
67434;BME280;54305;47.950;6.572;2023-06-05T06:51:24;94323.34;;;20.06;60.88
67434;BME280;54305;47.950;6.572;2023-06-05T06:53:50;94326.53;;;20.15;61.99
67434;BME280;54305;47.950;6.572;2023-06-05T06:56:16;94322.28;;;20.32;61.50
67434;BME280;54305;47.950;6.572;2023-06-05T06:58:42;94326.84;;;20.61;61.79
67434;BME280;54305;47.950;6.572;2023-06-05T07:01:08;94321.63;;;20.84;59.64
67434;BME280;54305;47.950;6.572;2023-06-05T07:03:34;94320.03;;;20.83;53.17
67434;BME280;54305;47.950;6.572;2023-06-05T07:05:59;94326.78;;;20.97;53.42
67434;BME280;54305;47.950;6.572;2023-06-05T07:08:24;94330.75;;;21.06;55.93
67434;BME280;54305;47.950;6.572;2023-06-05T07:10:50;94330.69;;;21.24;53.71
67434;BME280;54305;47.950;6.572;2023-06-05T07:13:16;94326.78;;;21.27;52.18
67434;BME280;54305;47.950;6.572;2023-06-05T07:15:41;94327.41;;;21.40;51.97
67434;BME280;54305;47.950;6.572;2023-06-05T07:18:06;94325.97;;;21.26;50.07
67434;BME280;54305;47.950;6.572;2023-06-05T07:20:31;94328.56;;;21.44;49.41
67434;BME280;54305;47.950;6.572;2023-06-05T07:22:57;94326.38;;;21.53;47.87
67434;BME280;54305;47.950;6.572;2023-06-05T07:25:26;94319.53;;;21.75;45.96
67434;BME280;54305;47.950;6.572;2023-06-05T07:27:52;94319.31;;;21.99;45.22
67434;BME280;54305;47.950;6.572;2023-06-05T07:30:18;94328.66;;;21.90;43.30
67434;BME280;54305;47.950;6.572;2023-06-05T07:32:43;94325.44;;;21.88;45.14
67434;BME280;54305;47.950;6.572;2023-06-05T07:35:10;94325.88;;;21.85;43.51
67434;BME280;54305;47.950;6.572;2023-06-05T07:37:38;94320.00;;;21.95;43.91
67434;BME280;54305;47.950;6.572;2023-06-05T07:40:03;94318.28;;;21.77;43.72
67434;BME280;54305;47.950;6.572;2023-06-05T07:42:30;94326.34;;;21.82;47.38
67434;BME280;54305;47.950;6.572;2023-06-05T07:44:55;94317.91;;;21.74;45.32
67434;BME280;54305;47.950;6.572;2023-06-05T07:47:20;94315.97;;;21.69;49.48
67434;BME280;54305;47.950;6.572;2023-06-05T07:49:56;94317.91;;;21.85;47.27
67434;BME280;54305;47.950;6.572;2023-06-05T07:52:21;94321.03;;;22.05;47.08
67434;BME280;54305;47.950;6.572;2023-06-05T07:54:46;94318.53;;;21.99;46.38
67434;BME280;54305;47.950;6.572;2023-06-05T07:57:12;94324.84;;;22.21;50.24
67434;BME280;54305;47.950;6.572;2023-06-05T07:59:38;94315.38;;;22.25;49.56
67434;BME280;54305;47.950;6.572;2023-06-05T08:02:03;94320.34;;;22.21;46.11
67434;BME280;54305;47.950;6.572;2023-06-05T08:04:30;94321.97;;;22.45;46.49
67434;BME280;54305;47.950;6.572;2023-06-05T08:06:55;94321.53;;;22.76;45.14
67434;BME280;54305;47.950;6.572;2023-06-05T08:09:21;94324.28;;;22.81;45.14
67434;BME280;54305;47.950;6.572;2023-06-05T08:11:47;94319.09;;;23.14;43.59
67434;BME280;54305;47.950;6.572;2023-06-05T08:14:13;94321.56;;;23.04;42.22
67434;BME280;54305;47.950;6.572;2023-06-05T08:16:38;94313.44;;;23.22;43.09
67434;BME280;54305;47.950;6.572;2023-06-05T08:19:03;94312.47;;;23.28;42.33
67434;BME280;54305;47.950;6.572;2023-06-05T08:21:29;94310.72;;;23.34;45.34
67434;BME280;54305;47.950;6.572;2023-06-05T08:23:55;94308.97;;;23.56;45.38
67434;BME280;54305;47.950;6.572;2023-06-05T08:26:20;94311.50;;;23.34;42.39
67434;BME280;54305;47.950;6.572;2023-06-05T08:28:46;94307.66;;;23.42;45.61
67434;BME280;54305;47.950;6.572;2023-06-05T08:31:12;94312.84;;;23.81;44.17
67434;BME280;54305;47.950;6.572;2023-06-05T08:33:37;94311.09;;;24.03;45.17
67434;BME280;54305;47.950;6.572;2023-06-05T08:36:03;94314.25;;;24.00;39.42
67434;BME280;54305;47.950;6.572;2023-06-05T08:38:29;94309.94;;;24.16;40.43
67434;BME280;54305;47.950;6.572;2023-06-05T08:41:02;94307.19;;;24.27;42.18
67434;BME280;54305;47.950;6.572;2023-06-05T08:43:27;94300.28;;;24.48;43.39
67434;BME280;54305;47.950;6.572;2023-06-05T08:45:53;94302.38;;;24.84;43.51
67434;BME280;54305;47.950;6.572;2023-06-05T08:48:20;94306.91;;;24.45;40.34
67434;BME280;54305;47.950;6.572;2023-06-05T08:50:47;94305.91;;;24.13;36.91
67434;BME280;54305;47.950;6.572;2023-06-05T08:53:12;94297.38;;;23.78;38.82
67434;BME280;54305;47.950;6.572;2023-06-05T08:55:41;94297.81;;;24.25;40.22
67434;BME280;54305;47.950;6.572;2023-06-05T08:58:07;94293.44;;;24.35;38.79
67434;BME280;54305;47.950;6.572;2023-06-05T09:00:32;94298.53;;;24.37;40.63
67434;BME280;54305;47.950;6.572;2023-06-05T09:02:57;94303.16;;;24.08;41.36
67434;BME280;54305;47.950;6.572;2023-06-05T09:05:24;94302.50;;;23.52;44.53
67434;BME280;54305;47.950;6.572;2023-06-05T09:07:49;94307.81;;;23.35;44.26
67434;BME280;54305;47.950;6.572;2023-06-05T09:10:22;94307.16;;;23.28;39.75
67434;BME280;54305;47.950;6.572;2023-06-05T09:15:22;94300.38;;;24.36;40.15
67434;BME280;54305;47.950;6.572;2023-06-05T09:17:51;94298.47;;;24.70;39.17
67434;BME280;54305;47.950;6.572;2023-06-05T09:20:26;94297.19;;;25.20;38.66
67434;BME280;54305;47.950;6.572;2023-06-05T09:22:54;94302.50;;;24.94;38.80
67434;BME280;54305;47.950;6.572;2023-06-05T09:25:19;94293.38;;;24.68;36.16
67434;BME280;54305;47.950;6.572;2023-06-05T09:27:45;94290.72;;;25.16;35.95
67434;BME280;54305;47.950;6.572;2023-06-05T09:30:29;94294.88;;;25.55;36.42
67434;BME280;54305;47.950;6.572;2023-06-05T09:32:55;94288.69;;;25.81;37.31
67434;BME280;54305;47.950;6.572;2023-06-05T09:35:20;94295.03;;;25.75;38.89
67434;BME280;54305;47.950;6.572;2023-06-05T09:37:45;94289.91;;;25.69;37.38
67434;BME280;54305;47.950;6.572;2023-06-05T09:40:11;94281.03;;;25.90;37.59
67434;BME280;54305;47.950;6.572;2023-06-05T09:42:40;94283.19;;;25.61;36.20
67434;BME280;54305;47.950;6.572;2023-06-05T09:45:06;94285.44;;;26.06;35.49
67434;BME280;54305;47.950;6.572;2023-06-05T09:47:31;94282.75;;;26.47;34.55
67434;BME280;54305;47.950;6.572;2023-06-05T09:49:56;94274.22;;;26.50;33.69
67434;BME280;54305;47.950;6.572;2023-06-05T09:52:22;94280.28;;;26.87;35.69
67434;BME280;54305;47.950;6.572;2023-06-05T09:54:47;94275.38;;;26.69;30.98
67434;BME280;54305;47.950;6.572;2023-06-05T09:57:13;94285.13;;;27.00;33.27
67434;BME280;54305;47.950;6.572;2023-06-05T09:59:52;94279.75;;;24.86;34.22
67434;BME280;54305;47.950;6.572;2023-06-05T10:02:19;94284.59;;;24.51;35.56
67434;BME280;54305;47.950;6.572;2023-06-05T10:04:45;94278.25;;;25.48;38.45
67434;BME280;54305;47.950;6.572;2023-06-05T10:07:11;94273.59;;;25.92;36.93
67434;BME280;54305;47.950;6.572;2023-06-05T10:09:37;94272.03;;;25.64;32.54
67434;BME280;54305;47.950;6.572;2023-06-05T10:12:03;94272.09;;;26.06;37.00
67434;BME280;54305;47.950;6.572;2023-06-05T10:14:29;94273.81;;;26.78;35.46
67434;BME280;54305;47.950;6.572;2023-06-05T10:16:54;94270.59;;;26.71;31.61
67434;BME280;54305;47.950;6.572;2023-06-05T10:19:21;94275.63;;;27.29;35.59
67434;BME280;54305;47.950;6.572;2023-06-05T10:21:47;94272.44;;;27.37;30.05
67434;BME280;54305;47.950;6.572;2023-06-05T10:24:48;94269.81;;;27.82;30.95
67434;BME280;54305;47.950;6.572;2023-06-05T10:40:25;94272.28;;;26.97;32.92
67434;BME280;54305;47.950;6.572;2023-06-05T10:42:51;94271.16;;;26.83;32.74
67434;BME280;54305;47.950;6.572;2023-06-05T10:45:29;94264.28;;;27.07;33.58
67434;BME280;54305;47.950;6.572;2023-06-05T10:47:55;94265.44;;;27.26;36.66
67434;BME280;54305;47.950;6.572;2023-06-05T10:50:21;94273.28;;;26.71;30.51
67434;BME280;54305;47.950;6.572;2023-06-05T10:52:50;94270.75;;;26.03;34.14
67434;BME280;54305;47.950;6.572;2023-06-05T10:55:15;94271.22;;;25.37;33.38
67434;BME280;54305;47.950;6.572;2023-06-05T11:00:25;94266.88;;;25.26;31.33
67434;BME280;54305;47.950;6.572;2023-06-05T11:02:50;94259.81;;;25.73;30.48
67434;BME280;54305;47.950;6.572;2023-06-05T11:05:16;94259.97;;;25.30;30.99
67434;BME280;54305;47.950;6.572;2023-06-05T11:07:41;94257.88;;;26.42;31.52
67434;BME280;54305;47.950;6.572;2023-06-05T11:17:37;94254.06;;;28.79;29.71
67434;BME280;54305;47.950;6.572;2023-06-05T11:20:03;94254.94;;;28.60;30.25
67434;BME280;54305;47.950;6.572;2023-06-05T11:27:51;94249.63;;;28.35;32.51
67434;BME280;54305;47.950;6.572;2023-06-05T11:30:20;94249.94;;;28.23;32.23
67434;BME280;54305;47.950;6.572;2023-06-05T11:32:46;94248.34;;;28.12;32.20
67434;BME280;54305;47.950;6.572;2023-06-05T11:35:11;94233.69;;;28.83;29.29
67434;BME280;54305;47.950;6.572;2023-06-05T11:37:37;94228.19;;;29.13;28.05
67434;BME280;54305;47.950;6.572;2023-06-05T11:40:03;94225.22;;;29.58;30.36
67434;BME280;54305;47.950;6.572;2023-06-05T11:42:38;94229.59;;;30.11;26.85
67434;BME280;54305;47.950;6.572;2023-06-05T11:45:10;94235.25;;;30.38;26.09
67434;BME280;54305;47.950;6.572;2023-06-05T11:47:35;94232.13;;;29.69;26.38
67434;BME280;54305;47.950;6.572;2023-06-05T11:50:07;94229.00;;;29.52;28.14
67434;BME280;54305;47.950;6.572;2023-06-05T11:52:33;94233.22;;;28.66;27.91
67434;BME280;54305;47.950;6.572;2023-06-05T11:55:09;94233.28;;;27.06;27.70
67434;BME280;54305;47.950;6.572;2023-06-05T11:57:43;94235.81;;;25.42;30.69
67434;BME280;54305;47.950;6.572;2023-06-05T12:00:09;94236.69;;;25.52;34.18
67434;BME280;54305;47.950;6.572;2023-06-05T12:02:36;94229.75;;;25.51;34.03
67434;BME280;54305;47.950;6.572;2023-06-05T12:05:01;94231.00;;;25.75;34.63
67434;BME280;54305;47.950;6.572;2023-06-05T12:07:27;94231.00;;;26.12;32.65
67434;BME280;54305;47.950;6.572;2023-06-05T12:09:53;94224.75;;;27.09;30.05
67434;BME280;54305;47.950;6.572;2023-06-05T12:12:18;94227.75;;;27.88;29.15
67434;BME280;54305;47.950;6.572;2023-06-05T12:14:43;94223.66;;;28.45;28.47
67434;BME280;54305;47.950;6.572;2023-06-05T12:17:09;94218.38;;;28.10;26.83
67434;BME280;54305;47.950;6.572;2023-06-05T12:19:35;94224.81;;;27.64;28.40
67434;BME280;54305;47.950;6.572;2023-06-05T12:22:01;94227.47;;;27.19;32.74
67434;BME280;54305;47.950;6.572;2023-06-05T12:24:27;94229.06;;;27.20;29.28
67434;BME280;54305;47.950;6.572;2023-06-05T12:26:56;94216.78;;;27.79;25.82
67434;BME280;54305;47.950;6.572;2023-06-05T12:29:34;94218.94;;;27.87;29.28
67434;BME280;54305;47.950;6.572;2023-06-05T12:32:00;94214.03;;;28.34;29.01
67434;BME280;54305;47.950;6.572;2023-06-05T12:34:42;94211.91;;;29.00;27.93
67434;BME280;54305;47.950;6.572;2023-06-05T12:37:10;94207.16;;;27.23;26.59
67434;BME280;54305;47.950;6.572;2023-06-05T12:39:35;94204.34;;;26.88;27.34
67434;BME280;54305;47.950;6.572;2023-06-05T12:42:01;94202.72;;;26.77;31.04
67434;BME280;54305;47.950;6.572;2023-06-05T12:44:27;94210.31;;;27.15;31.07
67434;BME280;54305;47.950;6.572;2023-06-05T12:46:52;94212.44;;;27.13;28.74
67434;BME280;54305;47.950;6.572;2023-06-05T12:49:18;94198.78;;;27.15;29.18
67434;BME280;54305;47.950;6.572;2023-06-05T12:51:43;94200.47;;;27.21;27.63
67434;BME280;54305;47.950;6.572;2023-06-05T12:54:08;94198.59;;;27.71;26.87
67434;BME280;54305;47.950;6.572;2023-06-05T12:56:34;94200.44;;;28.84;30.58
67434;BME280;54305;47.950;6.572;2023-06-05T12:59:00;94195.22;;;28.49;28.44
67434;BME280;54305;47.950;6.572;2023-06-05T13:01:25;94193.41;;;28.98;27.04
67434;BME280;54305;47.950;6.572;2023-06-05T13:03:51;94183.75;;;28.92;25.05
67434;BME280;54305;47.950;6.572;2023-06-05T13:06:17;94194.56;;;27.99;27.65
67434;BME280;54305;47.950;6.572;2023-06-05T13:08:42;94195.63;;;28.03;27.31
67434;BME280;54305;47.950;6.572;2023-06-05T13:11:08;94195.91;;;27.66;28.57
67434;BME280;54305;47.950;6.572;2023-06-05T13:13:33;94193.78;;;27.38;29.17
67434;BME280;54305;47.950;6.572;2023-06-05T13:16:01;94186.56;;;27.84;29.37
67434;BME280;54305;47.950;6.572;2023-06-05T13:18:27;94192.28;;;28.51;28.07
67434;BME280;54305;47.950;6.572;2023-06-05T13:20:53;94187.25;;;28.39;30.12
67434;BME280;54305;47.950;6.572;2023-06-05T13:23:19;94189.44;;;28.12;29.76
67434;BME280;54305;47.950;6.572;2023-06-05T13:25:44;94186.28;;;26.34;25.20
67434;BME280;54305;47.950;6.572;2023-06-05T13:28:10;94182.22;;;25.43;27.98
67434;BME280;54305;47.950;6.572;2023-06-05T13:30:35;94177.69;;;25.44;27.60
67434;BME280;54305;47.950;6.572;2023-06-05T13:33:00;94175.72;;;26.07;30.37